Time,TemperatureF,DewpointF,PressureIn,WindDirection,WindDirectionDegrees,WindSpeedMPH,WindSpeedGustMPH,Humidity,HourlyPrecipIn,Conditions,Clouds,dailyrainin,SoftwareType,DateUTC
2013-07-27 00:03:00,57.1,52.0,29.99,NW,315,0.0,0.0,84,0.00,,,0.00,weatherlink.com 1.10,2013-07-27 07:03:00,
2013-07-27 00:18:00,56.2,52.0,29.99,NW,315,0.0,0.0,84,0.00,,,0.00,weatherlink.com 1.10,2013-07-27 07:18:00,
2013-07-27 00:33:00,55.6,52.0,29.99,NW,315,0.0,0.0,86,0.00,,,0.00,weatherlink.com 1.10,2013-07-27 07:33:00,
2013-07-27 00:48:00,55.8,52.0,29.99,NNW,344,1.0,2.0,88,0.00,,,0.00,weatherlink.com 1.10,2013-07-27 07:48:00,
2013-07-27 01:03:00,55.5,52.0,29.99,NNW,344,0.0,2.0,87,0.00,,,0.00,weatherlink.com 1.10,2013-07-27 08:03:00,
2013-07-27 01:18:00,55.0,52.0,30.00,NNW,344,0.0,0.0,88,0.00,,,0.00,weatherlink.com 1.10,2013-07-27 08:18:00,
2013-07-27 01:33:00,54.1,50.0,30.00,NNW,344,0.0,0.0,87,0.00,,,0.00,weatherlink.com 1.10,2013-07-27 08:33:00,
2013-07-27 01:48:00,53.1,51.0,30.00,NNW,344,0.0,0.0,91,0.00,,,0.00,weatherlink.com 1.10,2013-07-27 08:48:00,
2013-07-27 02:03:00,52.4,49.0,29.99,NNW,344,0.0,0.0,89,0.00,,,0.00,weatherlink.com 1.10,2013-07-27 09:03:00,
2013-07-27 02:18:00,51.9,49.0,29.99,NNW,344,0.0,0.0,91,0.00,,,0.00,weatherlink.com 1.10,2013-07-27 09:18:00,
2013-07-27 02:33:00,51.4,49.0,29.98,NNW,344,0.0,0.0,92,0.00,,,0.00,weatherlink.com 1.10,2013-07-27 09:33:00,
2013-07-27 02:48:00,51.4,50.0,29.98,NNW,344,0.0,0.0,93,0.00,,,0.00,weatherlink.com 1.10,2013-07-27 09:48:00,
2013-07-27 03:03:00,51.3,49.0,29.98,NNW,344,0.0,0.0,92,0.00,,,0.00,weatherlink.com 1.10,2013-07-27 10:03:00,
2013-07-27 03:18:00,51.9,50.0,29.97,NE,53,4.0,4.0,94,0.00,,,0.00,weatherlink.com 1.10,2013-07-27 10:18:00,
2013-07-27 03:33:00,52.3,50.0,29.97,ENE,59,0.0,3.0,93,0.00,,,0.00,weatherlink.com 1.10,2013-07-27 10:33:00,
2013-07-27 03:48:00,52.2,50.0,29.97,ENE,59,1.0,2.0,93,0.00,,,0.00,weatherlink.com 1.10,2013-07-27 10:48:00,
2013-07-27 04:03:00,52.4,51.0,29.97,ENE,59,0.0,1.0,94,0.00,,,0.00,weatherlink.com 1.10,2013-07-27 11:03:00,
2013-07-27 04:18:00,52.4,51.0,29.96,ENE,59,0.0,2.0,94,0.00,,,0.00,weatherlink.com 1.10,2013-07-27 11:18:00,
2013-07-27 04:33:00,51.5,50.0,29.96,ENE,59,0.0,1.0,93,0.00,,,0.00,weatherlink.com 1.10,2013-07-27 11:33:00,
2013-07-27 04:48:00,51.8,50.0,29.96,ENE,71,3.0,4.0,94,0.00,,,0.00,weatherlink.com 1.10,2013-07-27 11:48:00,
2013-07-27 05:03:00,52.0,50.0,29.96,NE,47,0.0,5.0,94,0.00,,,0.00,weatherlink.com 1.10,2013-07-27 12:03:00,
2013-07-27 05:18:00,52.7,51.0,29.95,NE,47,0.0,1.0,95,0.00,,,0.00,weatherlink.com 1.10,2013-07-27 12:18:00,
2013-07-27 05:33:00,52.5,51.0,29.95,NE,47,0.0,1.0,94,0.00,,,0.00,weatherlink.com 1.10,2013-07-27 12:33:00,
2013-07-27 05:48:00,52.8,52.0,29.95,NE,47,1.0,1.0,95,0.00,,,0.00,weatherlink.com 1.10,2013-07-27 12:48:00,
2013-07-27 06:04:00,52.7,51.0,29.95,NE,47,0.0,0.0,94,0.00,,,0.00,weatherlink.com 1.10,2013-07-27 13:04:00,
2013-07-27 06:19:00,52.4,51.0,29.95,NE,47,0.0,0.0,94,0.00,,,0.00,weatherlink.com 1.10,2013-07-27 13:19:00,
2013-07-27 06:34:00,52.6,51.0,29.94,NE,47,0.0,0.0,95,0.00,,,0.00,weatherlink.com 1.10,2013-07-27 13:34:00,
2013-07-27 06:49:00,52.5,51.0,29.94,NE,47,0.0,0.0,94,0.00,,,0.00,weatherlink.com 1.10,2013-07-27 13:49:00,
2013-07-27 07:04:00,51.9,50.0,29.94,NE,47,0.0,0.0,92,0.00,,,0.00,weatherlink.com 1.10,2013-07-27 14:04:00,
2013-07-27 07:19:00,51.3,49.0,29.95,NE,47,0.0,0.0,92,0.00,,,0.00,weatherlink.com 1.10,2013-07-27 14:19:00,
2013-07-27 07:34:00,51.2,49.0,29.95,NE,47,0.0,0.0,93,0.00,,,0.00,weatherlink.com 1.10,2013-07-27 14:34:00,
2013-07-27 07:49:00,51.4,50.0,29.95,NE,47,0.0,0.0,93,0.00,,,0.00,weatherlink.com 1.10,2013-07-27 14:49:00,
2013-07-27 08:04:00,51.6,50.0,29.95,NE,47,0.0,0.0,93,0.00,,,0.00,weatherlink.com 1.10,2013-07-27 15:04:00,
2013-07-27 08:19:00,53.3,52.0,29.96,NE,47,0.0,0.0,94,0.00,,,0.00,weatherlink.com 1.10,2013-07-27 15:19:00,
2013-07-27 08:34:00,57.0,53.0,29.96,NNW,345,1.0,2.0,87,0.00,,,0.00,weatherlink.com 1.10,2013-07-27 15:34:00,
2013-07-27 08:49:00,58.1,54.0,29.96,NW,321,1.0,2.0,85,0.00,,,0.00,weatherlink.com 1.10,2013-07-27 15:49:00,
2013-07-27 09:04:00,59.3,54.0,29.96,WNW,290,1.0,2.0,83,0.00,,,0.00,weatherlink.com 1.10,2013-07-27 16:04:00,
2013-07-27 09:19:00,61.6,55.0,29.96,WNW,294,2.0,3.0,78,0.00,,,0.00,weatherlink.com 1.10,2013-07-27 16:19:00,
2013-07-27 09:34:00,63.4,55.0,29.96,West,270,1.0,2.0,75,0.00,,,0.00,weatherlink.com 1.10,2013-07-27 16:34:00,
2013-07-27 09:49:00,65.7,56.0,29.96,WNW,288,1.0,3.0,70,0.00,,,0.00,weatherlink.com 1.10,2013-07-27 16:49:00,
2013-07-27 10:04:00,67.7,56.0,29.96,WNW,292,2.0,4.0,67,0.00,,,0.00,weatherlink.com 1.10,2013-07-27 17:04:00,
2013-07-27 10:19:00,69.1,56.0,29.95,WNW,298,2.0,4.0,64,0.00,,,0.00,weatherlink.com 1.10,2013-07-27 17:19:00,
2013-07-27 10:34:00,70.8,57.0,29.95,WNW,288,2.0,5.0,61,0.00,,,0.00,weatherlink.com 1.10,2013-07-27 17:34:00,
2013-07-27 10:49:00,72.4,57.0,29.95,SSW,193,0.0,4.0,58,0.00,,,0.00,weatherlink.com 1.10,2013-07-27 17:49:00,
2013-07-27 11:04:00,73.1,57.0,29.95,WNW,300,2.0,4.0,57,0.00,,,0.00,weatherlink.com 1.10,2013-07-27 18:04:00,
2013-07-27 11:19:00,75.0,57.0,29.94,West,261,1.0,4.0,54,0.00,,,0.00,weatherlink.com 1.10,2013-07-27 18:19:00,
2013-07-27 11:34:00,76.8,58.0,29.94,South,190,1.0,5.0,52,0.00,,,0.00,weatherlink.com 1.10,2013-07-27 18:34:00,
2013-07-27 11:49:00,78.0,58.0,29.94,WNW,301,4.0,7.0,51,0.00,,,0.00,weatherlink.com 1.10,2013-07-27 18:49:00,
2013-07-27 12:04:00,79.5,59.0,29.93,West,268,2.0,7.0,50,0.00,,,0.00,weatherlink.com 1.10,2013-07-27 19:04:00,
2013-07-27 12:19:00,79.5,59.0,29.93,NW,306,2.0,7.0,49,0.00,,,0.00,weatherlink.com 1.10,2013-07-27 19:19:00,
2013-07-27 12:34:00,80.4,59.0,29.93,West,267,1.0,7.0,49,0.00,,,0.00,weatherlink.com 1.10,2013-07-27 19:34:00,
2013-07-27 12:50:00,81.0,59.0,29.93,West,272,2.0,7.0,48,0.00,,,0.00,weatherlink.com 1.10,2013-07-27 19:50:00,
2013-07-27 13:05:00,81.0,58.0,29.92,West,262,2.0,9.0,46,0.00,,,0.00,weatherlink.com 1.10,2013-07-27 20:05:00,
2013-07-27 13:20:00,82.7,59.0,29.92,WNW,295,5.0,8.0,44,0.00,,,0.00,weatherlink.com 1.10,2013-07-27 20:20:00,
2013-07-27 13:35:00,83.8,58.0,29.91,WNW,284,3.0,6.0,42,0.00,,,0.00,weatherlink.com 1.10,2013-07-27 20:35:00,
2013-07-27 13:50:00,84.2,58.0,29.90,WNW,291,3.0,6.0,41,0.00,,,0.00,weatherlink.com 1.10,2013-07-27 20:50:00,
2013-07-27 14:05:00,85.8,59.0,29.90,West,277,2.0,5.0,40,0.00,,,0.00,weatherlink.com 1.10,2013-07-27 21:05:00,
2013-07-27 14:20:00,84.9,58.0,29.90,WNW,288,4.0,6.0,40,0.00,,,0.00,weatherlink.com 1.10,2013-07-27 21:20:00,
2013-07-27 14:35:00,84.2,59.0,29.90,WSW,250,4.0,10.0,42,0.00,,,0.00,weatherlink.com 1.10,2013-07-27 21:35:00,
2013-07-27 14:50:00,85.1,58.0,29.89,WNW,283,3.0,5.0,40,0.00,,,0.00,weatherlink.com 1.10,2013-07-27 21:50:00,
2013-07-27 15:05:00,82.7,57.0,29.89,NW,306,5.0,10.0,41,0.00,,,0.00,weatherlink.com 1.10,2013-07-27 22:05:00,
2013-07-27 15:20:00,84.9,58.0,29.89,WNW,286,3.0,7.0,40,0.00,,,0.00,weatherlink.com 1.10,2013-07-27 22:20:00,
2013-07-27 15:35:00,83.7,57.0,29.88,WNW,286,2.0,6.0,40,0.00,,,0.00,weatherlink.com 1.10,2013-07-27 22:35:00,
2013-07-27 15:50:00,81.6,58.0,29.88,West,281,1.0,8.0,44,0.00,,,0.00,weatherlink.com 1.10,2013-07-27 22:50:00,
2013-07-27 16:05:00,80.6,57.0,29.88,WNW,296,3.0,10.0,44,0.00,,,0.00,weatherlink.com 1.10,2013-07-27 23:05:00,
2013-07-27 16:20:00,80.8,56.0,29.88,West,265,2.0,9.0,43,0.00,,,0.00,weatherlink.com 1.10,2013-07-27 23:20:00,
2013-07-27 16:35:00,80.7,56.0,29.88,WSW,250,3.0,8.0,43,0.00,,,0.00,weatherlink.com 1.10,2013-07-27 23:35:00,
2013-07-27 16:50:00,81.4,57.0,29.88,WNW,288,5.0,7.0,43,0.00,,,0.00,weatherlink.com 1.10,2013-07-27 23:50:00,
2013-07-27 17:05:00,79.8,57.0,29.87,WSW,252,2.0,6.0,45,0.00,,,0.00,weatherlink.com 1.10,2013-07-28 00:05:00,
2013-07-27 17:20:00,79.6,57.0,29.87,West,279,1.0,5.0,46,0.00,,,0.00,weatherlink.com 1.10,2013-07-28 00:20:00,
2013-07-27 17:35:00,78.8,57.0,29.87,WNW,298,2.0,7.0,47,0.00,,,0.00,weatherlink.com 1.10,2013-07-28 00:35:00,
2013-07-27 17:50:00,78.2,57.0,29.86,WNW,292,2.0,6.0,48,0.00,,,0.00,weatherlink.com 1.10,2013-07-28 00:50:00,
2013-07-27 18:05:00,77.3,57.0,29.87,WNW,303,4.0,5.0,49,0.00,,,0.00,weatherlink.com 1.10,2013-07-28 01:05:00,
2013-07-27 18:20:00,76.7,57.0,29.86,NW,309,4.0,7.0,50,0.00,,,0.00,weatherlink.com 1.10,2013-07-28 01:20:00,
2013-07-27 18:35:00,75.5,56.0,29.86,WNW,286,4.0,8.0,51,0.00,,,0.00,weatherlink.com 1.10,2013-07-28 01:35:00,
2013-07-27 18:50:00,73.9,56.0,29.86,WSW,238,2.0,5.0,54,0.00,,,0.00,weatherlink.com 1.10,2013-07-28 01:50:00,
2013-07-27 19:05:00,72.9,56.0,29.85,West,261,1.0,4.0,55,0.00,,,0.00,weatherlink.com 1.10,2013-07-28 02:05:00,
2013-07-27 19:20:00,72.0,56.0,29.85,NW,322,3.0,4.0,57,0.00,,,0.00,weatherlink.com 1.10,2013-07-28 02:20:00,
2013-07-27 19:35:00,71.0,56.0,29.85,West,278,0.0,3.0,59,0.00,,,0.00,weatherlink.com 1.10,2013-07-28 02:35:00,
2013-07-27 19:50:00,68.9,55.0,29.85,WNW,289,0.0,4.0,62,0.00,,,0.00,weatherlink.com 1.10,2013-07-28 02:50:00,
2013-07-27 20:05:00,67.4,55.0,29.85,WNW,290,3.0,4.0,64,0.00,,,0.00,weatherlink.com 1.10,2013-07-28 03:05:00,
2013-07-27 20:20:00,66.1,55.0,29.86,WSW,246,0.0,2.0,67,0.00,,,0.00,weatherlink.com 1.10,2013-07-28 03:20:00,
2013-07-27 20:35:00,64.8,54.0,29.86,West,278,1.0,2.0,69,0.00,,,0.00,weatherlink.com 1.10,2013-07-28 03:35:00,
2013-07-27 20:50:00,63.8,54.0,29.85,West,278,0.0,1.0,71,0.00,,,0.00,weatherlink.com 1.10,2013-07-28 03:50:00,
2013-07-27 21:05:00,62.7,54.0,29.86,West,278,0.0,1.0,72,0.00,,,0.00,weatherlink.com 1.10,2013-07-28 04:05:00,
2013-07-27 21:20:00,61.8,53.0,29.86,West,278,0.0,2.0,74,0.00,,,0.00,weatherlink.com 1.10,2013-07-28 04:20:00,
2013-07-27 21:35:00,60.9,53.0,29.86,West,278,1.0,2.0,76,0.00,,,0.00,weatherlink.com 1.10,2013-07-28 04:35:00,
2013-07-27 21:50:00,60.1,53.0,29.86,West,278,0.0,0.0,78,0.00,,,0.00,weatherlink.com 1.10,2013-07-28 04:50:00,
2013-07-27 22:05:00,59.9,54.0,29.87,West,278,0.0,2.0,81,0.00,,,0.00,weatherlink.com 1.10,2013-07-28 05:05:00,
2013-07-27 22:20:00,59.2,53.0,29.87,West,262,0.0,2.0,81,0.00,,,0.00,weatherlink.com 1.10,2013-07-28 05:20:00,
2013-07-27 22:35:00,59.3,54.0,29.87,West,262,0.0,1.0,82,0.00,,,0.00,weatherlink.com 1.10,2013-07-28 05:35:00,
2013-07-27 22:50:00,59.2,54.0,29.87,West,262,0.0,1.0,83,0.00,,,0.00,weatherlink.com 1.10,2013-07-28 05:50:00,
2013-07-27 23:05:00,58.0,53.0,29.87,West,262,0.0,1.0,82,0.00,,,0.00,weatherlink.com 1.10,2013-07-28 06:05:00,
2013-07-27 23:20:00,57.4,52.0,29.87,West,262,0.0,0.0,83,0.00,,,0.00,weatherlink.com 1.10,2013-07-28 06:20:00,
2013-07-27 23:35:00,57.0,53.0,29.87,West,262,0.0,1.0,86,0.00,,,0.00,weatherlink.com 1.10,2013-07-28 06:35:00,
2013-07-27 23:50:00,56.9,53.0,29.87,West,262,0.0,0.0,86,0.00,,,0.00,weatherlink.com 1.10,2013-07-28 06:50:00,